Time;durP1;ratioP1;P1;durP2;ratioP2;P2;SDS_P1;SDS_P2;PMS_P1;PMS_P2;Temp;Humidity;BMP_temperature;BMP_pressure;BME280_temperature;BME280_humidity;BME280_pressure;Samples;Min_cycle;Max_cycle;Signal;HPM_P1;HPM_P2
2023/08/15 00:01:09;;;;;;;0.30;0.30;;;;;;;22.06;100.00;96808.25;29395;286;63009;-90
2023/08/15 00:02:47;;;;;;;0.30;0.30;;;;;;;22.00;100.00;96810.50;29394;206;64009;-92
2023/08/15 00:04:27;;;;;;;0.30;0.30;;;;;;;21.94;100.00;96811.97;29395;278;63009;-91
2023/08/15 00:06:04;;;;;;;0.30;0.30;;;;;;;21.94;100.00;96806.44;29395;199;63005;-93
2023/08/15 00:07:51;;;;;;;0.30;0.30;;;;;;;21.93;100.00;96807.59;29417;271;63009;-90
2023/08/15 00:09:19;;;;;;;;;;;;;;;;;;;;;
2023/08/15 00:10:48;;;;;;;0.35;0.35;;;;;;;21.95;100.00;96802.50;29395;220;63009;-93
2023/08/15 00:11:39;;;;;;;0.40;0.40;;;;;;;21.96;100.00;96797.78;29417;243;63005;-91
2023/08/15 00:13:23;;;;;;;0.30;0.30;;;;;;;21.97;100.00;96794.66;29479;211;125018;-93
2023/08/15 00:15:15;;;;;;;0.30;0.30;;;;;;;21.99;100.00;96792.31;29394;315;64009;-89
2023/08/15 00:16:42;;;;;;;;;;;;;;;;;;;;;
2023/08/15 00:18:30;;;;;;;0.30;0.30;;;;;;;22.02;100.00;96797.13;29395;204;63009;-92
2023/08/15 00:20:08;;;;;;;0.30;0.30;;;;;;;22.03;100.00;96795.97;29394;200;64009;-92
2023/08/15 00:22:08;;;;;;;0.30;0.30;;;;;;;22.03;100.00;96793.22;29395;198;63004;-91
2023/08/15 00:23:34;;;;;;;0.30;0.30;;;;;;;22.04;100.00;96796.78;29478;236;126013;-91
2023/08/15 00:25:29;;;;;;;0.30;0.30;;;;;;;22.05;100.00;96799.16;29395;214;63001;-91
2023/08/15 00:27:08;;;;;;;0.30;0.30;;;;;;;22.06;100.00;96797.19;29395;278;63005;-90
2023/08/15 00:28:21;;;;;;;0.30;0.30;;;;;;;22.06;100.00;96803.53;29394;202;64005;-92
2023/08/15 00:29:51;;;;;;;0.30;0.30;;;;;;;22.09;100.00;96803.94;29395;206;63009;-91
2023/08/15 00:31:19;;;;;;;;;;;;;;;;;;;;;
2023/08/15 00:32:53;;;;;;;0.30;0.30;;;;;;;22.13;100.00;96802.06;29394;202;64009;-90
2023/08/15 00:35:59;;;;;;;0.30;0.30;;;;;;;22.20;100.00;96791.09;29395;246;63009;-92
2023/08/15 00:37:10;;;;;;;;;;;;;;;;;;;;;
2023/08/15 00:39:02;;;;;;;;;;;;;;;;;;;;;
2023/08/15 00:40:16;;;;;;;0.30;0.30;;;;;;;22.29;99.72;96791.63;29395;252;63005;-92
2023/08/15 00:41:36;;;;;;;0.30;0.30;;;;;;;22.31;99.24;96784.56;29417;198;63009;-91
2023/08/15 00:43:18;;;;;;;0.30;0.30;;;;;;;22.27;98.60;96775.41;29394;205;64005;-91
2023/08/15 00:44:40;;;;;;;0.30;0.30;;;;;;;22.35;98.18;96777.13;29395;196;63009;-93
2023/08/15 00:46:14;;;;;;;0.30;0.30;;;;;;;22.38;97.61;96781.12;29395;236;63004;-92
2023/08/15 00:47:31;;;;;;;0.20;0.20;;;;;;;22.40;97.93;96784.31;29395;236;63009;-92
2023/08/15 00:48:24;;;;;;;;;;;;;;;22.41;97.67;96780.38;29996;982;6000;-90
2023/08/15 00:49:50;;;;;;;0.30;0.30;;;;;;;22.42;97.79;96783.94;29400;231;63001;-93
2023/08/15 00:51:10;;;;;;;0.30;0.30;;;;;;;22.36;97.95;96784.25;29440;272;63004;-91
2023/08/15 00:52:31;;;;;;;0.30;0.30;;;;;;;22.38;98.11;96781.91;29374;242;63000;-90
2023/08/15 00:53:31;;;;;;;0.30;0.30;;;;;;;22.28;98.67;96770.69;29396;202;63004;-89
2023/08/15 00:55:09;;;;;;;;;;;;;;;;;;;;;
2023/08/15 00:56:40;;;;;;;0.30;0.30;;;;;;;22.21;99.06;96778.88;29395;262;64009;-91
2023/08/15 00:58:04;;;;;;;0.30;0.30;;;;;;;22.23;99.76;96779.28;29396;247;63005;-91
2023/08/15 00:59:28;;;;;;;0.30;0.30;;;;;;;22.18;100.00;96779.63;29396;235;63009;-91
2023/08/15 01:01:10;;;;;;;0.30;0.30;;;;;;;22.14;100.00;96784.31;29395;231;64004;-91
2023/08/15 01:02:53;;;;;;;0.30;0.30;;;;;;;22.10;100.00;96783.44;29396;215;63009;-92
2023/08/15 01:04:21;;;;;;;0.30;0.30;;;;;;;22.04;100.00;96783.75;29396;258;63005;-91
2023/08/15 01:05:58;;;;;;;0.30;0.30;;;;;;;22.01;100.00;96787.25;29418;266;63009;-91
2023/08/15 01:07:28;;;;;;;0.30;0.30;;;;;;;21.95;100.00;96785.13;29417;196;64004;-91
2023/08/15 01:09:20;;;;;;;0.30;0.30;;;;;;;21.92;100.00;96781.12;29374;223;63008;-90
2023/08/15 01:10:12;;;;;;;0.30;0.30;;;;;;;21.90;100.00;96780.72;29396;254;63005;-90
2023/08/15 01:11:23;;;;;;;0.20;0.20;;;;;;;21.89;100.00;96781.06;29395;223;64009;-90
2023/08/15 01:13:05;;;;;;;0.30;0.30;;;;;;;21.87;100.00;96773.16;29396;244;63005;-92
2023/08/15 01:14:24;;;;;;;0.30;0.30;;;;;;;21.85;100.00;96781.00;29396;200;63004;-91
2023/08/15 01:16:04;;;;;;;0.30;0.30;;;;;;;21.83;100.00;96766.78;29396;212;63009;-89
2023/08/15 01:17:29;;;;;;;0.30;0.30;;;;;;;21.81;100.00;96774.66;29395;202;64005;-90
2023/08/15 01:19:02;;;;;;;0.30;0.30;;;;;;;21.79;100.00;96771.47;29396;203;63009;-91
2023/08/15 01:20:31;;;;;;;0.30;0.30;;;;;;;21.76;100.00;96769.44;29396;197;63005;-90
2023/08/15 01:21:49;;;;;;;0.30;0.30;;;;;;;21.73;100.00;96778.47;29395;224;64009;-92
2023/08/15 01:23:30;;;;;;;0.30;0.30;;;;;;;21.71;100.00;96776.06;29396;290;63004;-90
2023/08/15 01:24:36;;;;;;;0.30;0.30;;;;;;;21.68;100.00;96782.31;29395;264;64009;-91
2023/08/15 01:25:57;;;;;;;0.30;0.30;;;;;;;21.67;100.00;96779.91;29396;202;63005;-91
2023/08/15 01:27:19;;;;;;;;;;;;;;;;;;;;;
2023/08/15 01:28:38;;;;;;;0.30;0.30;;;;;;;21.64;100.00;96775.13;29418;211;63005;-92
2023/08/15 01:30:09;;;;;;;0.30;0.30;;;;;;;21.62;100.00;96774.69;29395;233;64009;-93
2023/08/15 01:31:16;;;;;;;0.30;0.30;;;;;;;21.60;100.00;96769.53;29395;270;64004;-93
2023/08/15 01:32:50;;;;;;;0.30;0.30;;;;;;;21.53;100.00;96769.41;29396;218;63009;-92
2023/08/15 01:35:38;;;;;;;;;;;;;;;21.44;100.00;96773.59;29997;983;6000;-93
2023/08/15 01:37:12;;;;;;;0.30;0.30;;;;;;;21.43;100.00;96769.22;29400;203;64004;-93
2023/08/15 01:38:23;;;;;;;0.30;0.30;;;;;;;21.41;100.00;96766.84;29419;216;63008;-92
2023/08/15 01:40:09;;;;;;;0.30;0.30;;;;;;;21.39;100.00;96764.44;29397;215;63004;-91
2023/08/15 01:41:39;;;;;;;0.30;0.30;;;;;;;21.33;100.00;96748.53;29397;216;63009;-93
2023/08/15 01:43:22;;;;;;;0.30;0.30;;;;;;;21.38;100.00;96759.28;29396;214;64004;-92
2023/08/15 01:44:41;;;;;;;0.30;0.30;;;;;;;21.41;100.00;96764.06;29397;227;63009;-91
2023/08/15 01:46:00;;;;;;;0.30;0.30;;;;;;;21.42;100.00;96765.69;29419;219;63004;-91
2023/08/15 01:46:39;;;;;;;0.30;0.30;;;;;;;21.47;100.00;96767.34;29397;250;63009;-90
2023/08/15 01:47:22;;;;;;;0.30;0.30;;;;;;;21.48;100.00;96766.97;29396;224;63005;-90
2023/08/15 01:48:15;;;;;;;0.30;0.30;;;;;;;21.51;100.00;96768.19;29395;204;64009;-90
2023/08/15 01:48:51;;;;;;;0.30;0.30;;;;;;;21.52;100.00;96773.34;29418;219;63005;-90
2023/08/15 01:49:34;;;;;;;0.30;0.30;;;;;;;21.54;100.00;96770.22;29396;253;63009;-90
2023/08/15 01:50:16;;;;;;;0.30;0.30;;;;;;;21.56;100.00;96774.19;29396;251;63005;-91
2023/08/15 01:51:17;;;;;;;0.30;0.30;;;;;;;21.58;100.00;96771.06;29418;205;63009;-90
2023/08/15 01:52:17;;;;;;;0.30;0.30;;;;;;;21.59;100.00;96769.91;29397;267;63017;-91
2023/08/15 01:53:19;;;;;;;0.30;0.30;;;;;;;21.59;100.00;96764.38;29395;257;64008;-91
2023/08/15 01:54:22;;;;;;;0.30;0.30;;;;;;;21.58;100.00;96771.88;29396;296;63005;-89
2023/08/15 01:55:36;;;;;;;0.30;0.30;;;;;;;21.57;100.00;96772.25;29418;203;63009;-90
2023/08/15 01:56:18;;;;;;;0.30;0.30;;;;;;;21.56;100.00;96768.69;29396;240;63005;-92
2023/08/15 01:57:02;;;;;;;0.30;0.30;;;;;;;21.55;100.00;96766.28;29396;222;63009;-90
2023/08/15 01:58:00;;;;;;;0.30;0.30;;;;;;;21.53;100.00;96768.59;29395;226;64005;-91
2023/08/15 01:58:38;;;;;;;0.30;0.30;;;;;;;21.52;100.00;96767.81;29395;232;64009;-90
2023/08/15 01:59:31;;;;;;;0.30;0.30;;;;;;;21.52;100.00;96767.00;29397;254;63004;-91
2023/08/15 02:00:09;;;;;;;0.30;0.30;;;;;;;21.50;100.00;96769.34;29395;228;64009;-92
2023/08/15 02:01:03;;;;;;;0.30;0.30;;;;;;;21.49;100.00;96764.97;29396;256;63004;-93
2023/08/15 02:01:40;;;;;;;0.30;0.30;;;;;;;21.46;100.00;96763.78;29396;229;63009;-89
2023/08/15 02:02:12;;;;;;;0.30;0.30;;;;;;;21.44;100.00;96762.56;29396;222;63005;-92
2023/08/15 02:03:41;;;;;;;0.30;0.30;;;;;;;21.43;100.00;96763.72;29396;234;63009;-92
2023/08/15 02:04:32;;;;;;;0.30;0.30;;;;;;;21.38;100.00;96762.84;29396;230;63005;-91
2023/08/15 02:05:36;;;;;;;0.30;0.30;;;;;;;21.38;100.00;96756.53;29395;218;64009;-90
2023/08/15 02:06:38;;;;;;;0.30;0.30;;;;;;;21.36;100.00;96759.66;29396;252;63004;-91
2023/08/15 02:07:11;;;;;;;0.30;0.30;;;;;;;21.35;100.00;96760.81;29396;214;63009;-90
2023/08/15 02:07:43;;;;;;;0.30;0.30;;;;;;;21.35;100.00;96758.06;29396;293;63004;-89
2023/08/15 02:08:23;;;;;;;0.30;0.30;;;;;;;21.36;100.00;96759.66;29396;287;63008;-90
2023/08/15 02:08:55;;;;;;;0.30;0.30;;;;;;;21.36;100.00;96759.66;29417;219;64005;-90
2023/08/15 02:09:31;;;;;;;0.30;0.30;;;;;;;21.36;100.00;96759.66;29396;214;63009;-91
2023/08/15 02:10:17;;;;;;;0.30;0.30;;;;;;;21.35;100.00;96763.56;29396;267;63005;-90
2023/08/15 02:11:14;;;;;;;0.30;0.30;;;;;;;21.32;100.00;96757.97;29396;276;63009;-89
2023/08/15 02:12:16;;;;;;;0.30;0.30;;;;;;;21.30;100.00;96763.88;29396;202;63005;-90
2023/08/15 02:13:40;;;;;;;0.30;0.30;;;;;;;21.31;100.00;96765.47;29395;216;64009;-91
2023/08/15 02:14:11;;;;;;;0.30;0.30;;;;;;;21.31;100.00;96757.19;29396;286;63004;-89
2023/08/15 02:14:47;;;;;;;0.30;0.30;;;;;;;21.33;100.00;96760.38;29396;292;63013;-91
2023/08/15 02:15:24;;;;;;;0.30;0.30;;;;;;;21.31;100.00;96762.72;29396;204;63004;-89
2023/08/15 02:15:56;;;;;;;0.30;0.30;;;;;;;21.28;100.00;96757.13;29396;196;63008;-90
2023/08/15 02:16:49;;;;;;;0.30;0.30;;;;;;;21.30;100.00;96761.09;29396;253;63005;-90
2023/08/15 02:17:22;;;;;;;0.30;0.30;;;;;;;21.33;100.00;96760.38;29396;214;63009;-90
2023/08/15 02:18:02;;;;;;;0.30;0.30;;;;;;;21.31;100.00;96757.19;29395;231;64005;-90
2023/08/15 02:18:36;;;;;;;0.30;0.30;;;;;;;21.31;100.00;96765.47;29418;229;63009;-90
2023/08/15 02:19:36;;;;;;;0.30;0.30;;;;;;;21.29;100.00;96759.50;29396;236;63005;-89
2023/08/15 02:20:18;;;;;;;0.30;0.30;;;;;;;21.29;100.00;96765.03;29396;226;63009;-92
2023/08/15 02:21:14;;;;;;;0.30;0.30;;;;;;;21.26;100.00;96760.25;29396;227;63004;-91
2023/08/15 02:21:55;;;;;;;0.30;0.30;;;;;;;21.25;100.00;96763.38;29396;253;63009;-93
2023/08/15 02:22:55;;;;;;;0.30;0.30;;;;;;;21.24;100.00;96768.09;29396;199;63004;-91
2023/08/15 02:23:36;;;;;;;0.30;0.30;;;;;;;21.23;100.00;96763.72;29395;205;64008;-90
2023/08/15 02:25:09;;;;;;;0.30;0.30;;;;;;;21.21;100.00;96755.00;29396;251;63005;-92
2023/08/15 02:26:40;;;;;;;;;;;;;;;;;;;;;
2023/08/15 02:27:24;;;;;;;0.30;0.30;;;;;;;21.19;100.00;96754.56;29396;281;63005;-90
2023/08/15 02:28:05;;;;;;;0.30;0.30;;;;;;;21.22;100.00;96753.84;29396;249;63009;-91
2023/08/15 02:29:50;;;;;;;;;;;;;;;;;;;;;
2023/08/15 02:30:38;;;;;;;0.30;0.30;;;;;;;21.20;100.00;96750.62;29396;224;63008;-90
2023/08/15 02:31:54;;;;;;;0.30;0.30;;;;;;;21.21;100.00;96752.25;29396;214;63005;-91
2023/08/15 02:32:43;;;;;;;0.30;0.30;;;;;;;21.21;100.00;96749.50;29396;197;63009;-90
2023/08/15 02:34:00;;;;;;;0.30;0.30;;;;;;;21.14;100.00;96741.03;29418;214;63005;-91
2023/08/15 02:35:11;;;;;;;0.30;0.30;;;;;;;21.21;100.00;96746.72;29395;243;64009;-92
2023/08/15 02:35:53;;;;;;;0.30;0.30;;;;;;;21.21;100.00;96741.22;29397;239;63004;-89
2023/08/15 02:37:37;;;;;;;0.30;0.30;;;;;;;21.24;100.00;96751.53;29397;207;63009;-93
2023/08/15 02:38:38;;;;;;;0.30;0.30;;;;;;;21.27;100.00;96745.28;29397;219;63005;-90
2023/08/15 02:40:12;;;;;;;0.30;0.30;;;;;;;21.28;100.00;96749.62;29397;226;63009;-92
2023/08/15 02:41:32;;;;;;;0.30;0.30;;;;;;;21.32;100.00;96750.50;29394;233;64005;-92
2023/08/15 02:42:14;;;;;;;0.30;0.30;;;;;;;21.36;100.00;96754.13;29395;319;63009;-90
2023/08/15 02:43:29;;;;;;;0.30;0.30;;;;;;;21.39;100.00;96752.59;29395;224;63004;-91
2023/08/15 02:44:58;;;;;;;;;;;;;;;;;;;;;
2023/08/15 02:46:07;;;;;;;0.30;0.30;;;;;;;21.43;100.00;96759.00;29395;228;63005;-90
2023/08/15 02:47:32;;;;;;;0.30;0.30;;;;;;;21.46;100.00;96757.47;29393;236;64009;-89
2023/08/15 02:48:16;;;;;;;0.30;0.30;;;;;;;21.46;100.00;96754.69;29415;242;64005;-90
2023/08/15 02:49:35;;;;;;;0.30;0.30;;;;;;;21.47;100.00;96759.06;29395;221;63009;-90
2023/08/15 02:50:54;;;;;;;0.30;0.30;;;;;;;21.48;100.00;96755.13;29395;294;63004;-92
2023/08/15 02:51:26;;;;;;;0.30;0.30;;;;;;;21.49;100.00;96751.19;29395;221;63009;-91
2023/08/15 02:52:43;;;;;;;0.25;0.25;;;;;;;21.52;100.00;96750.44;29395;215;63004;-91
2023/08/15 02:54:11;;;;;;;0.30;0.30;;;;;;;21.54;100.00;96750.88;29415;216;64009;-91
2023/08/15 02:54:54;;;;;;;0.30;0.30;;;;;;;21.55;100.00;96752.47;29395;202;63005;-91
2023/08/15 02:56:02;;;;;;;0.30;0.30;;;;;;;21.56;100.00;96754.06;29395;238;63009;-90
2023/08/15 02:57:17;;;;;;;0.30;0.30;;;;;;;21.55;100.00;96752.47;29395;204;63005;-92
2023/08/15 02:58:24;;;;;;;0.30;0.30;;;;;;;21.57;100.00;96762.00;29395;215;63009;-90
2023/08/15 03:00:00;;;;;;;0.30;0.30;;;;;;;21.56;100.00;96756.84;29393;219;64004;-94
2023/08/15 03:01:34;;;;;;;0.30;0.30;;;;;;;21.57;100.00;96755.66;29395;199;63009;-92
2023/08/15 03:03:04;;;;;;;0.30;0.30;;;;;;;21.57;100.00;96747.37;29395;285;63005;-92
2023/08/15 03:03:39;;;;;;;0.30;0.30;;;;;;;21.57;100.00;96759.22;29417;214;63009;-91
2023/08/15 03:05:23;;;;;;;0.30;0.30;;;;;;;21.56;100.00;96741.06;29393;212;64005;-91
2023/08/15 03:06:17;;;;;;;;;;;;;;;21.57;100.00;96748.19;29996;985;6004;-91
2023/08/15 03:07:34;;;;;;;0.30;0.30;;;;;;;21.58;100.00;96754.50;29400;233;63009;-91
2023/08/15 03:09:08;;;;;;;0.30;0.30;;;;;;;21.57;100.00;96758.44;29395;242;63005;-91
2023/08/15 03:10:14;;;;;;;0.35;0.35;;;;;;;21.55;100.00;96760.75;29416;198;64009;-91
2023/08/15 03:11:44;;;;;;;;;;;;;;;;;;;;;
2023/08/15 03:13:05;;;;;;;0.30;0.30;;;;;;;21.54;100.00;96764.69;29395;256;63009;-92
2023/08/15 03:13:42;;;;;;;0.30;0.30;;;;;;;21.52;100.00;96754.00;29395;225;63004;-93
2023/08/15 03:14:45;;;;;;;0.30;0.30;;;;;;;21.52;100.00;96758.72;29395;206;63009;-92
2023/08/15 03:16:26;;;;;;;0.30;0.30;;;;;;;21.51;100.00;96765.41;29394;232;64004;-90
2023/08/15 03:17:43;;;;;;;0.30;0.30;;;;;;;21.49;100.00;96756.69;29395;203;63009;-93
2023/08/15 03:18:27;;;;;;;;;;;;;;;;;;;;;
2023/08/15 03:19:52;;;;;;;0.30;0.30;;;;;;;21.46;100.00;96757.47;29395;218;63009;-91
2023/08/15 03:21:22;;;;;;;0.30;0.30;;;;;;;21.45;100.00;96756.66;29395;268;63004;-91
2023/08/15 03:22:28;;;;;;;0.30;0.30;;;;;;;21.43;100.00;96760.94;29393;243;64009;-93
2023/08/15 03:23:47;;;;;;;0.30;0.30;;;;;;;21.38;100.00;96757.31;29395;221;63004;-92
2023/08/15 03:24:30;;;;;;;0.30;0.30;;;;;;;21.42;100.00;96762.91;29395;209;63009;-92
2023/08/15 03:25:32;;;;;;;0.30;0.30;;;;;;;21.40;100.00;96760.53;29395;225;63005;-91
2023/08/15 03:26:32;;;;;;;0.30;0.30;;;;;;;21.39;100.00;96761.69;29417;202;63009;-89
2023/08/15 03:27:34;;;;;;;0.30;0.30;;;;;;;21.38;100.00;96757.31;29394;211;64005;-91
2023/08/15 03:28:19;;;;;;;;;;;;;;;21.39;100.00;96756.16;29996;983;6004;-90
2023/08/15 03:29:23;;;;;;;0.30;0.30;;;;;;;21.40;100.00;96757.75;29400;216;63009;-90
2023/08/15 03:30:13;;;;;;;0.30;0.30;;;;;;;21.37;100.00;96764.00;29395;236;63015;-92
2023/08/15 03:31:10;;;;;;;0.30;0.30;;;;;;;21.36;100.00;96759.66;29395;202;63008;-92
2023/08/15 03:31:47;;;;;;;0.30;0.30;;;;;;;21.36;100.00;96770.69;29395;253;63005;-93
2023/08/15 03:32:33;;;;;;;0.30;0.30;;;;;;;21.35;100.00;96768.28;29394;197;64009;-92
2023/08/15 03:33:24;;;;;;;0.30;0.30;;;;;;;21.33;100.00;96768.66;29395;202;63005;-92
2023/08/15 03:34:09;;;;;;;0.30;0.30;;;;;;;21.30;100.00;96766.63;29395;227;63009;-90
2023/08/15 03:35:45;;;;;;;0.30;0.30;;;;;;;21.27;100.00;96772.88;29395;199;63004;-91
2023/08/15 03:36:50;;;;;;;0.30;0.30;;;;;;;21.27;100.00;96774.84;29395;199;63009;-93
2023/08/15 03:37:49;;;;;;;0.30;0.30;;;;;;;21.27;100.00;96774.84;29394;263;64004;-90
2023/08/15 03:38:30;;;;;;;;;;;;;;;21.27;100.00;96777.59;29996;983;6004;-91
2023/08/15 03:39:24;;;;;;;0.30;0.30;;;;;;;21.27;100.00;96772.06;29400;237;63009;-89
2023/08/15 03:40:23;;;;;;;0.30;0.30;;;;;;;21.27;100.00;96772.88;29395;202;63005;-92
2023/08/15 03:41:21;;;;;;;0.30;0.30;;;;;;;21.26;100.00;96782.31;29395;223;63009;-91
2023/08/15 03:42:21;;;;;;;0.30;0.30;;;;;;;21.25;100.00;96777.97;29395;215;63004;-92
2023/08/15 03:43:59;;;;;;;0.30;0.30;;;;;;;21.25;100.00;96777.97;29394;256;64009;-91
2023/08/15 03:45:37;;;;;;;0.30;0.30;;;;;;;21.25;100.00;96780.72;29395;243;63004;-93
2023/08/15 03:46:36;;;;;;;0.30;0.30;;;;;;;21.26;100.00;96779.56;29395;222;63009;-90
2023/08/15 03:47:21;;;;;;;0.30;0.30;;;;;;;21.27;100.00;96777.59;29395;245;63005;-91
2023/08/15 03:49:16;;;;;;;0.30;0.30;;;;;;;21.28;100.00;96774.47;29394;216;64009;-90
2023/08/15 03:50:10;;;;;;;0.30;0.30;;;;;;;21.27;100.00;96775.63;29395;243;63004;-94
2023/08/15 03:50:55;;;;;;;0.30;0.30;;;;;;;21.28;100.00;96777.22;29395;222;63009;-92
2023/08/15 03:52:20;;;;;;;0.30;0.30;;;;;;;21.28;100.00;96777.22;29395;234;63004;-93
2023/08/15 03:53:41;;;;;;;0.30;0.30;;;;;;;21.24;100.00;96768.09;29395;227;63009;-91
2023/08/15 03:54:19;;;;;;;0.30;0.30;;;;;;;21.28;100.00;96771.72;29394;207;64005;-89
2023/08/15 03:55:14;;;;;;;0.30;0.30;;;;;;;21.30;100.00;96772.16;29395;263;63009;-91
2023/08/15 03:56:25;;;;;;;0.30;0.30;;;;;;;21.30;100.00;96774.09;29395;248;63005;-92
2023/08/15 03:57:17;;;;;;;0.30;0.30;;;;;;;21.29;100.00;96776.06;29395;257;63009;-93
2023/08/15 03:58:33;;;;;;;0.30;0.30;;;;;;;21.30;100.00;96777.66;29395;202;63004;-93
2023/08/15 03:59:34;;;;;;;0.30;0.30;;;;;;;21.30;100.00;96772.16;29395;248;63009;-91
2023/08/15 04:00:20;;;;;;;0.30;0.30;;;;;;;21.29;100.00;96784.34;29394;196;64004;-90
2023/08/15 04:00:58;;;;;;;0.30;0.30;;;;;;;21.28;100.00;96779.19;29395;226;63009;-93
2023/08/15 04:01:39;;;;;;;0.30;0.30;;;;;;;21.26;100.00;96782.31;29395;244;63005;-91
2023/08/15 04:02:12;;;;;;;0.30;0.30;;;;;;;21.26;100.00;96781.50;29395;207;63009;-91
2023/08/15 04:02:52;;;;;;;0.30;0.30;;;;;;;21.24;100.00;96787.41;29395;248;63005;-93
2023/08/15 04:04:30;;;;;;;0.30;0.30;;;;;;;21.23;100.00;96788.56;29395;220;63020;-92
2023/08/15 04:05:58;;;;;;;0.30;0.30;;;;;;;21.19;100.00;96793.19;29394;199;64004;-92
2023/08/15 04:06:32;;;;;;;0.30;0.30;;;;;;;21.19;100.00;96782.13;29394;206;64009;-91
2023/08/15 04:07:26;;;;;;;0.30;0.30;;;;;;;21.19;100.00;96786.84;29395;243;63004;-93
2023/08/15 04:08:06;;;;;;;0.30;0.30;;;;;;;21.19;100.00;96786.84;29394;219;64009;-91
2023/08/15 04:08:45;;;;;;;0.30;0.30;;;;;;;21.18;100.00;96780.53;29395;203;63005;-90
2023/08/15 04:09:32;;;;;;;0.30;0.30;;;;;;;21.17;100.00;96778.16;29395;222;63009;-90
2023/08/15 04:10:15;;;;;;;0.30;0.30;;;;;;;21.17;100.00;96780.91;29395;216;63005;-91
2023/08/15 04:10:50;;;;;;;0.30;0.30;;;;;;;21.16;100.00;96785.63;29395;210;63009;-91
2023/08/15 04:11:40;;;;;;;0.30;0.30;;;;;;;21.14;100.00;96787.94;29416;218;64005;-89
2023/08/15 04:12:16;;;;;;;0.30;0.30;;;;;;;21.13;100.00;96789.12;29395;280;63009;-90
2023/08/15 04:13:29;;;;;;;0.30;0.30;;;;;;;21.12;100.00;96781.22;29395;253;63004;-91
2023/08/15 04:14:04;;;;;;;0.30;0.30;;;;;;;21.09;100.00;96788.25;29395;295;63009;-90
2023/08/15 04:14:59;;;;;;;0.30;0.30;;;;;;;21.08;100.00;96786.66;29395;223;63004;-94
2023/08/15 04:15:36;;;;;;;0.30;0.30;;;;;;;21.05;100.00;96790.16;29395;207;63009;-91
2023/08/15 04:16:09;;;;;;;0.30;0.30;;;;;;;21.05;100.00;96798.44;29395;235;63005;-91
2023/08/15 04:17:26;;;;;;;0.30;0.30;;;;;;;21.02;100.00;96796.38;29394;198;64009;-91
2023/08/15 04:18:09;;;;;;;0.30;0.30;;;;;;;20.98;100.00;96796.31;29395;208;63005;-92
2023/08/15 04:18:50;;;;;;;0.30;0.30;;;;;;;20.96;100.00;96790.34;29395;203;63009;-90
2023/08/15 04:19:32;;;;;;;0.30;0.30;;;;;;;20.95;100.00;96787.97;29417;218;63005;-93
2023/08/15 04:20:45;;;;;;;0.30;0.30;;;;;;;20.94;100.00;96792.69;29395;243;63009;-91
2023/08/15 04:21:31;;;;;;;0.30;0.30;;;;;;;20.94;100.00;96794.63;29395;212;63004;-89
2023/08/15 04:22:30;;;;;;;0.30;0.30;;;;;;;20.92;100.00;96794.19;29394;286;64008;-92
2023/08/15 04:23:27;;;;;;;0.30;0.30;;;;;;;20.87;100.00;96800.00;29395;220;63005;-90
2023/08/15 04:24:01;;;;;;;0.30;0.30;;;;;;;20.86;100.00;96803.91;29395;218;63009;-91
2023/08/15 04:24:40;;;;;;;0.30;0.30;;;;;;;20.83;100.00;96808.19;29417;244;63005;-90
2023/08/15 04:25:16;;;;;;;0.30;0.30;;;;;;;20.83;100.00;96812.91;29373;235;63009;-90
2023/08/15 04:26:00;;;;;;;0.30;0.30;;;;;;;20.82;100.00;96803.03;29395;235;63005;-91
2023/08/15 04:27:05;;;;;;;0.30;0.30;;;;;;;20.80;100.00;96802.59;29395;241;63009;-91
2023/08/15 04:28:06;;;;;;;0.30;0.30;;;;;;;20.80;100.00;96791.56;29394;235;64004;-92
2023/08/15 04:29:03;;;;;;;0.30;0.30;;;;;;;20.79;100.00;96793.56;29395;285;63009;-90
2023/08/15 04:30:29;;;;;;;0.30;0.30;;;;;;;20.80;100.00;96792.37;29395;282;63004;-91
2023/08/15 04:31:41;;;;;;;0.30;0.30;;;;;;;20.81;100.00;96793.97;29395;204;63009;-91
2023/08/15 04:32:16;;;;;;;0.30;0.30;;;;;;;20.82;100.00;96797.53;29395;229;63005;-92
2023/08/15 04:33:16;;;;;;;0.30;0.30;;;;;;;20.82;100.00;96800.28;29394;196;64009;-92
2023/08/15 04:34:39;;;;;;;0.30;0.30;;;;;;;20.84;100.00;96809.00;29395;220;63005;-92
2023/08/15 04:35:39;;;;;;;0.30;0.30;;;;;;;20.83;100.00;96807.37;29395;197;63009;-92
2023/08/15 04:36:34;;;;;;;0.30;0.30;;;;;;;20.83;100.00;96821.19;29395;198;63004;-91
2023/08/15 04:37:20;;;;;;;0.30;0.30;;;;;;;20.81;100.00;96815.22;29395;222;63008;-92
2023/08/15 04:37:59;;;;;;;0.30;0.30;;;;;;;20.80;100.00;96819.16;29394;202;64004;-90
2023/08/15 04:38:56;;;;;;;0.30;0.30;;;;;;;20.80;100.00;96819.16;29422;197;63009;-90
2023/08/15 04:39:34;;;;;;;0.30;0.30;;;;;;;20.78;100.00;96827.00;29395;218;63010;-91
2023/08/15 04:41:08;;;;;;;0.30;0.30;;;;;;;20.77;100.00;96819.88;29395;217;63009;-92
2023/08/15 04:42:04;;;;;;;0.30;0.30;;;;;;;20.76;100.00;96841.16;29394;210;64004;-91
2023/08/15 04:43:18;;;;;;;0.30;0.30;;;;;;;20.76;100.00;96838.41;29394;252;64009;-91
2023/08/15 04:44:17;;;;;;;0.30;0.30;;;;;;;20.81;100.00;96853.84;29395;236;63004;-91
2023/08/15 04:44:54;;;;;;;0.35;0.35;;;;;;;20.78;100.00;96849.06;29395;198;63008;-93
2023/08/15 04:45:43;;;;;;;0.30;0.30;;;;;;;20.73;100.00;96842.66;29395;206;63005;-92
2023/08/15 04:46:19;;;;;;;0.30;0.30;;;;;;;20.67;100.00;96843.31;29395;198;63009;-89
2023/08/15 04:46:55;;;;;;;0.30;0.30;;;;;;;20.63;100.00;96847.94;29395;202;63005;-91
2023/08/15 04:48:13;;;;;;;0.30;0.30;;;;;;;20.61;100.00;96845.53;29395;203;63009;-91
2023/08/15 04:48:56;;;;;;;0.30;0.30;;;;;;;20.60;100.00;96843.94;29394;197;64005;-92
2023/08/15 04:50:05;;;;;;;0.30;0.30;;;;;;;20.60;100.00;96846.69;29395;253;63009;-91
2023/08/15 04:50:57;;;;;;;0.30;0.30;;;;;;;20.59;100.00;96845.09;29395;209;63011;-91
2023/08/15 04:52:32;;;;;;;0.30;0.30;;;;;;;20.54;100.00;96844.56;29417;220;63008;-93
2023/08/15 04:53:55;;;;;;;0.30;0.30;;;;;;;20.52;100.00;96847.69;29395;199;63005;-91
2023/08/15 04:54:55;;;;;;;;;;;;;;;;;;;;;
2023/08/15 04:55:45;;;;;;;0.35;0.35;;;;;;;20.54;100.00;96844.56;29395;222;63005;-94
2023/08/15 04:56:22;;;;;;;0.30;0.30;;;;;;;20.53;100.00;96849.28;29395;235;63009;-91
2023/08/15 04:57:13;;;;;;;0.30;0.30;;;;;;;20.51;100.00;96848.81;29395;228;63004;-90
2023/08/15 04:57:52;;;;;;;0.30;0.30;;;;;;;20.47;100.00;96850.69;29395;199;63009;-92
2023/08/15 04:58:33;;;;;;;0.30;0.30;;;;;;;20.46;100.00;96848.31;29395;202;63004;-91
2023/08/15 04:59:52;;;;;;;0.30;0.30;;;;;;;20.44;100.00;96856.97;29395;280;63008;-93
2023/08/15 05:00:38;;;;;;;0.30;0.30;;;;;;;20.40;100.00;96845.03;29394;203;64005;-91
2023/08/15 05:01:21;;;;;;;0.30;0.30;;;;;;;20.37;100.00;96854.00;29395;263;63009;-90
2023/08/15 05:02:17;;;;;;;0.30;0.30;;;;;;;20.37;100.00;96845.72;29395;206;63005;-91
2023/08/15 05:02:58;;;;;;;0.30;0.30;;;;;;;20.32;100.00;96855.06;29395;260;63009;-93
2023/08/15 05:03:51;;;;;;;0.32;0.32;;;;;;;20.29;100.00;96849.47;29395;247;63008;-91
2023/08/15 05:04:37;;;;;;;0.30;0.30;;;;;;;20.31;100.00;96858.16;29395;219;63009;-90
2023/08/15 05:05:48;;;;;;;0.30;0.30;;;;;;;20.30;100.00;96857.38;29395;244;63004;-92
2023/08/15 05:06:30;;;;;;;0.30;0.30;;;;;;;20.30;100.00;96846.34;29394;233;64009;-91
2023/08/15 05:07:31;;;;;;;0.30;0.30;;;;;;;20.31;100.00;96847.16;29395;218;63010;-91
2023/08/15 05:08:40;;;;;;;0.30;0.30;;;;;;;20.34;100.00;96851.94;29417;230;63009;-92
2023/08/15 05:09:34;;;;;;;0.30;0.30;;;;;;;20.36;100.00;96846.88;29395;264;63011;-90
2023/08/15 05:10:49;;;;;;;0.30;0.30;;;;;;;20.36;100.00;96849.62;29395;236;63009;-90
2023/08/15 05:11:27;;;;;;;0.30;0.30;;;;;;;20.37;100.00;96851.25;29394;254;64004;-90
2023/08/15 05:11:59;;;;;;;0.30;0.30;;;;;;;20.38;100.00;96855.63;29395;197;63009;-92
2023/08/15 05:12:46;;;;;;;0.30;0.30;;;;;;;20.39;100.00;96852.50;29395;241;63004;-92
2023/08/15 05:13:50;;;;;;;0.30;0.30;;;;;;;20.41;100.00;96852.16;29395;279;63009;-94
2023/08/15 05:15:25;;;;;;;0.30;0.30;;;;;;;20.44;100.00;96854.19;29395;226;63004;-91
2023/08/15 05:16:41;;;;;;;0.30;0.30;;;;;;;20.47;100.00;96856.22;29395;198;63009;-91
2023/08/15 05:17:50;;;;;;;0.30;0.30;;;;;;;20.50;100.00;96855.50;29394;203;64005;-91
2023/08/15 05:18:44;;;;;;;0.40;0.40;;;;;;;20.53;100.00;96852.03;29395;260;63009;-92